sensor_id;sensor_type;location;lat;lon;timestamp;pressure;altitude;pressure_sealevel;temperature;humidity
13767;BME280;47980;48.794;9.176;2023-12-29T00:01:38;98297.91;;;10.19;88.70
13767;BME280;47980;48.794;9.176;2023-12-29T00:04:10;98298.72;;;10.28;87.80
13767;BME280;47980;48.794;9.176;2023-12-29T00:06:42;98294.34;;;10.32;87.56
13767;BME280;47980;48.794;9.176;2023-12-29T00:09:14;98281.50;;;10.34;86.81
13767;BME280;47980;48.794;9.176;2023-12-29T00:11:46;98280.44;;;10.26;86.65
13767;BME280;47980;48.794;9.176;2023-12-29T00:14:18;98299.50;;;10.28;87.15
13767;BME280;47980;48.794;9.176;2023-12-29T00:16:51;98296.03;;;10.36;85.56
13767;BME280;47980;48.794;9.176;2023-12-29T00:19:22;98300.84;;;10.43;85.61
13767;BME280;47980;48.794;9.176;2023-12-29T00:21:54;98294.09;;;10.54;84.58
13767;BME280;47980;48.794;9.176;2023-12-29T00:24:26;98295.00;;;10.58;83.31
13767;BME280;47980;48.794;9.176;2023-12-29T00:26:57;98294.84;;;10.55;83.91
13767;BME280;47980;48.794;9.176;2023-12-29T00:29:30;98294.72;;;10.51;84.14
13767;BME280;47980;48.794;9.176;2023-12-29T00:32:07;98288.53;;;10.39;84.29
13767;BME280;47980;48.794;9.176;2023-12-29T00:34:39;98293.03;;;10.38;84.67
13767;BME280;47980;48.794;9.176;2023-12-29T00:37:11;98288.69;;;10.33;83.78
13767;BME280;47980;48.794;9.176;2023-12-29T00:39:42;98289.63;;;10.38;84.02
13767;BME280;47980;48.794;9.176;2023-12-29T00:42:14;98279.78;;;10.38;84.01
13767;BME280;47980;48.794;9.176;2023-12-29T00:44:45;98283.03;;;10.44;83.68
13767;BME280;47980;48.794;9.176;2023-12-29T00:47:19;98278.22;;;10.46;84.23
13767;BME280;47980;48.794;9.176;2023-12-29T00:49:53;98280.41;;;10.44;83.62
13767;BME280;47980;48.794;9.176;2023-12-29T00:52:25;98288.94;;;10.49;82.20
13767;BME280;47980;48.794;9.176;2023-12-29T00:54:57;98289.06;;;10.53;82.51
13767;BME280;47980;48.794;9.176;2023-12-29T00:57:28;98297.50;;;10.55;83.01
13767;BME280;47980;48.794;9.176;2023-12-29T01:00:00;98299.03;;;10.65;82.60
13767;BME280;47980;48.794;9.176;2023-12-29T01:02:33;98291.38;;;10.63;83.48
13767;BME280;47980;48.794;9.176;2023-12-29T01:05:05;98301.69;;;10.65;82.86
13767;BME280;47980;48.794;9.176;2023-12-29T01:07:37;98300.38;;;10.71;82.10
13767;BME280;47980;48.794;9.176;2023-12-29T01:10:08;98309.44;;;10.70;83.01
13767;BME280;47980;48.794;9.176;2023-12-29T01:12:40;98309.31;;;10.66;83.06
13767;BME280;47980;48.794;9.176;2023-12-29T01:15:12;98309.50;;;10.61;82.68
13767;BME280;47980;48.794;9.176;2023-12-29T01:17:45;98302.59;;;10.69;82.30
13767;BME280;47980;48.794;9.176;2023-12-29T01:20:17;98300.56;;;10.66;82.53
13767;BME280;47980;48.794;9.176;2023-12-29T01:22:49;98301.72;;;10.85;80.12
13767;BME280;47980;48.794;9.176;2023-12-29T01:25:21;98295.56;;;10.73;81.08
13767;BME280;47980;48.794;9.176;2023-12-29T01:27:54;98294.63;;;10.69;81.00
13767;BME280;47980;48.794;9.176;2023-12-29T01:30:26;98290.38;;;10.76;80.19
13767;BME280;47980;48.794;9.176;2023-12-29T01:33:00;98296.03;;;10.66;80.82
13767;BME280;47980;48.794;9.176;2023-12-29T01:35:32;98282.97;;;10.61;80.75
13767;BME280;47980;48.794;9.176;2023-12-29T01:38:04;98298.06;;;10.69;79.17
13767;BME280;47980;48.794;9.176;2023-12-29T01:40:42;98302.25;;;10.70;80.10
13767;BME280;47980;48.794;9.176;2023-12-29T01:43:14;98309.44;;;10.70;80.60
13767;BME280;47980;48.794;9.176;2023-12-29T01:45:46;98298.25;;;10.64;80.54
13767;BME280;47980;48.794;9.176;2023-12-29T01:48:22;98300.25;;;10.67;79.81
13767;BME280;47980;48.794;9.176;2023-12-29T01:50:57;98288.84;;;10.75;80.24
13767;BME280;47980;48.794;9.176;2023-12-29T01:53:29;98287.22;;;10.83;78.17
13767;BME280;47980;48.794;9.176;2023-12-29T01:56:01;98295.00;;;10.88;78.49
13767;BME280;47980;48.794;9.176;2023-12-29T01:58:33;98295.19;;;10.83;78.50
13767;BME280;47980;48.794;9.176;2023-12-29T02:01:06;98282.19;;;10.90;79.42
13767;BME280;47980;48.794;9.176;2023-12-29T02:03:39;98280.88;;;10.75;79.06
13767;BME280;47980;48.794;9.176;2023-12-29T02:06:12;98278.09;;;10.72;79.40
13767;BME280;47980;48.794;9.176;2023-12-29T02:08:44;98275.97;;;10.86;78.48
13767;BME280;47980;48.794;9.176;2023-12-29T02:11:16;98279.41;;;10.87;78.75
13767;BME280;47980;48.794;9.176;2023-12-29T02:13:48;98273.00;;;10.88;77.98
13767;BME280;47980;48.794;9.176;2023-12-29T02:16:28;98269.84;;;10.94;79.16
13767;BME280;47980;48.794;9.176;2023-12-29T02:19:13;98275.13;;;10.94;78.05
13767;BME280;47980;48.794;9.176;2023-12-29T02:21:45;98267.22;;;10.85;79.71
13767;BME280;47980;48.794;9.176;2023-12-29T02:24:17;98274.09;;;10.87;78.87
13767;BME280;47980;48.794;9.176;2023-12-29T02:26:53;98263.88;;;10.97;79.89
13767;BME280;47980;48.794;9.176;2023-12-29T02:29:28;98260.19;;;10.90;78.38
13767;BME280;47980;48.794;9.176;2023-12-29T02:32:03;98262.25;;;10.84;79.06
13767;BME280;47980;48.794;9.176;2023-12-29T02:34:40;98262.19;;;10.93;79.91
13767;BME280;47980;48.794;9.176;2023-12-29T02:37:12;98259.59;;;10.84;78.34
13767;BME280;47980;48.794;9.176;2023-12-29T02:39:45;98264.56;;;10.85;80.06
13767;BME280;47980;48.794;9.176;2023-12-29T02:42:18;98261.25;;;10.89;78.82
13767;BME280;47980;48.794;9.176;2023-12-29T02:44:50;98253.31;;;10.89;79.60
13767;BME280;47980;48.794;9.176;2023-12-29T02:47:21;98243.59;;;10.93;79.34
13767;BME280;47980;48.794;9.176;2023-12-29T02:49:53;98253.66;;;11.08;78.08
13767;BME280;47980;48.794;9.176;2023-12-29T02:52:25;98247.06;;;10.93;79.39
13767;BME280;47980;48.794;9.176;2023-12-29T02:54:57;98249.09;;;10.88;78.48
13767;BME280;47980;48.794;9.176;2023-12-29T02:57:30;98249.88;;;10.88;80.38
13767;BME280;47980;48.794;9.176;2023-12-29T03:00:02;98241.00;;;10.84;80.06
13767;BME280;47980;48.794;9.176;2023-12-29T03:02:34;98243.16;;;10.91;79.66
13767;BME280;47980;48.794;9.176;2023-12-29T03:05:06;98238.72;;;10.74;81.50
13767;BME280;47980;48.794;9.176;2023-12-29T03:07:38;98233.63;;;10.69;82.87
13767;BME280;47980;48.794;9.176;2023-12-29T03:10:11;98238.28;;;10.72;82.24
13767;BME280;47980;48.794;9.176;2023-12-29T03:12:43;98235.38;;;10.65;83.40
13767;BME280;47980;48.794;9.176;2023-12-29T03:15:18;98228.13;;;10.74;82.92
13767;BME280;47980;48.794;9.176;2023-12-29T03:17:50;98227.84;;;10.67;83.14
13767;BME280;47980;48.794;9.176;2023-12-29T03:20:22;98224.97;;;10.51;83.89
13767;BME280;47980;48.794;9.176;2023-12-29T03:22:53;98229.53;;;10.42;84.67
13767;BME280;47980;48.794;9.176;2023-12-29T03:25:25;98229.28;;;10.64;85.05
13767;BME280;47980;48.794;9.176;2023-12-29T03:27:58;98224.34;;;10.54;84.69
13767;BME280;47980;48.794;9.176;2023-12-29T03:30:30;98214.38;;;10.51;85.02
13767;BME280;47980;48.794;9.176;2023-12-29T03:33:02;98215.00;;;10.48;86.25
13767;BME280;47980;48.794;9.176;2023-12-29T03:35:34;98213.50;;;10.38;86.79
13767;BME280;47980;48.794;9.176;2023-12-29T03:38:05;98211.53;;;10.26;87.47
13767;BME280;47980;48.794;9.176;2023-12-29T03:40:37;98206.69;;;10.28;87.55
13767;BME280;47980;48.794;9.176;2023-12-29T03:43:09;98203.09;;;10.24;88.12
13767;BME280;47980;48.794;9.176;2023-12-29T03:45:41;98210.31;;;10.15;89.64
13767;BME280;47980;48.794;9.176;2023-12-29T03:48:12;98209.53;;;10.15;89.83
13767;BME280;47980;48.794;9.176;2023-12-29T03:50:44;98211.69;;;10.21;89.80
13767;BME280;47980;48.794;9.176;2023-12-29T03:53:15;98222.16;;;10.18;89.77
13767;BME280;47980;48.794;9.176;2023-12-29T03:55:47;98217.13;;;10.25;89.20
13767;BME280;47980;48.794;9.176;2023-12-29T03:58:20;98202.78;;;10.26;89.86
13767;BME280;47980;48.794;9.176;2023-12-29T04:00:51;98211.34;;;10.23;89.50
13767;BME280;47980;48.794;9.176;2023-12-29T04:03:23;98202.03;;;10.25;90.53
13767;BME280;47980;48.794;9.176;2023-12-29T04:05:54;98200.75;;;10.23;90.17
13767;BME280;47980;48.794;9.176;2023-12-29T04:08:26;98212.56;;;10.34;89.64
13767;BME280;47980;48.794;9.176;2023-12-29T04:10:57;98208.03;;;10.34;88.96
13767;BME280;47980;48.794;9.176;2023-12-29T04:13:30;98209.94;;;10.34;90.63
13767;BME280;47980;48.794;9.176;2023-12-29T04:16:02;98206.84;;;10.32;90.62
13767;BME280;47980;48.794;9.176;2023-12-29T04:18:34;98197.31;;;10.31;90.27
13767;BME280;47980;48.794;9.176;2023-12-29T04:21:05;98201.38;;;10.28;91.37
13767;BME280;47980;48.794;9.176;2023-12-29T04:23:39;98193.56;;;10.32;90.75
13767;BME280;47980;48.794;9.176;2023-12-29T04:26:11;98199.66;;;10.24;91.82
13767;BME280;47980;48.794;9.176;2023-12-29T04:28:44;98207.66;;;10.15;92.10
13767;BME280;47980;48.794;9.176;2023-12-29T04:31:16;98206.13;;;10.05;93.14
13767;BME280;47980;48.794;9.176;2023-12-29T04:33:47;98204.84;;;10.11;94.09
13767;BME280;47980;48.794;9.176;2023-12-29T04:36:19;98205.78;;;10.16;92.88
13767;BME280;47980;48.794;9.176;2023-12-29T04:38:50;98201.56;;;10.15;94.95
13767;BME280;47980;48.794;9.176;2023-12-29T04:41:22;98192.50;;;10.16;95.35
13767;BME280;47980;48.794;9.176;2023-12-29T04:43:55;98196.31;;;10.06;95.98
13767;BME280;47980;48.794;9.176;2023-12-29T04:46:26;98196.63;;;10.04;94.99
13767;BME280;47980;48.794;9.176;2023-12-29T04:48:57;98209.72;;;10.09;95.23
13767;BME280;47980;48.794;9.176;2023-12-29T04:51:29;98211.41;;;10.14;95.17
13767;BME280;47980;48.794;9.176;2023-12-29T04:54:01;98219.50;;;10.09;95.53
13767;BME280;47980;48.794;9.176;2023-12-29T04:56:32;98219.34;;;10.14;96.09
13767;BME280;47980;48.794;9.176;2023-12-29T04:59:05;98238.03;;;10.26;94.53
13767;BME280;47980;48.794;9.176;2023-12-29T05:01:36;98221.34;;;10.26;95.20
13767;BME280;47980;48.794;9.176;2023-12-29T05:04:08;98212.63;;;10.17;96.25
13767;BME280;47980;48.794;9.176;2023-12-29T05:06:39;98212.03;;;10.11;96.22
13767;BME280;47980;48.794;9.176;2023-12-29T05:09:11;98216.22;;;10.21;97.13
13767;BME280;47980;48.794;9.176;2023-12-29T05:11:43;98220.72;;;10.20;96.36
13767;BME280;47980;48.794;9.176;2023-12-29T05:14:16;98225.06;;;10.25;96.80
13767;BME280;47980;48.794;9.176;2023-12-29T05:16:47;98225.06;;;10.25;95.49
13767;BME280;47980;48.794;9.176;2023-12-29T05:19:19;98224.59;;;10.23;96.37
13767;BME280;47980;48.794;9.176;2023-12-29T05:21:50;98225.53;;;10.35;94.88
13767;BME280;47980;48.794;9.176;2023-12-29T05:24:24;98219.94;;;10.28;96.37
13767;BME280;47980;48.794;9.176;2023-12-29T05:26:55;98216.28;;;10.42;95.59
13767;BME280;47980;48.794;9.176;2023-12-29T05:29:28;98217.56;;;10.35;96.92
13767;BME280;47980;48.794;9.176;2023-12-29T05:31:59;98218.22;;;10.32;97.37
13767;BME280;47980;48.794;9.176;2023-12-29T05:34:32;98212.75;;;10.29;98.11
13767;BME280;47980;48.794;9.176;2023-12-29T05:37:04;98208.28;;;10.12;99.63
13767;BME280;47980;48.794;9.176;2023-12-29T05:39:35;98210.78;;;10.08;100.00
13767;BME280;47980;48.794;9.176;2023-12-29T05:42:07;98209.06;;;10.12;100.00
13767;BME280;47980;48.794;9.176;2023-12-29T05:44:40;98210.59;;;10.22;100.00
13767;BME280;47980;48.794;9.176;2023-12-29T05:47:12;98217.53;;;10.06;100.00
13767;BME280;47980;48.794;9.176;2023-12-29T05:49:43;98216.66;;;10.23;100.00
13767;BME280;47980;48.794;9.176;2023-12-29T05:52:15;98214.34;;;10.12;100.00
13767;BME280;47980;48.794;9.176;2023-12-29T05:54:46;98210.66;;;10.05;100.00
13767;BME280;47980;48.794;9.176;2023-12-29T05:57:18;98208.34;;;9.95;100.00
13767;BME280;47980;48.794;9.176;2023-12-29T05:59:51;98216.81;;;9.88;100.00
13767;BME280;47980;48.794;9.176;2023-12-29T06:02:22;98221.56;;;10.03;100.00
13767;BME280;47980;48.794;9.176;2023-12-29T06:04:54;98218.94;;;10.03;100.00
13767;BME280;47980;48.794;9.176;2023-12-29T06:07:26;98216.44;;;9.98;100.00
13767;BME280;47980;48.794;9.176;2023-12-29T06:09:57;98222.34;;;10.04;100.00
13767;BME280;47980;48.794;9.176;2023-12-29T06:12:29;98216.09;;;10.08;100.00
13767;BME280;47980;48.794;9.176;2023-12-29T06:15:02;98225.16;;;10.07;100.00
13767;BME280;47980;48.794;9.176;2023-12-29T06:17:34;98224.53;;;10.02;100.00
13767;BME280;47980;48.794;9.176;2023-12-29T06:20:06;98223.94;;;9.96;100.00
13767;BME280;47980;48.794;9.176;2023-12-29T06:22:40;98211.78;;;9.95;100.00
13767;BME280;47980;48.794;9.176;2023-12-29T06:25:12;98214.78;;;9.85;100.00
13767;BME280;47980;48.794;9.176;2023-12-29T06:27:44;98211.34;;;9.84;100.00
13767;BME280;47980;48.794;9.176;2023-12-29T06:30:17;98219.00;;;9.69;100.00
13767;BME280;47980;48.794;9.176;2023-12-29T06:32:48;98223.88;;;9.67;100.00
13767;BME280;47980;48.794;9.176;2023-12-29T06:35:22;98225.59;;;9.62;100.00
13767;BME280;47980;48.794;9.176;2023-12-29T06:37:53;98224.16;;;9.65;100.00
13767;BME280;47980;48.794;9.176;2023-12-29T06:40:25;98218.09;;;9.64;100.00
13767;BME280;47980;48.794;9.176;2023-12-29T06:42:56;98215.44;;;9.73;100.00
13767;BME280;47980;48.794;9.176;2023-12-29T06:45:29;98206.88;;;9.68;100.00
13767;BME280;47980;48.794;9.176;2023-12-29T06:48:01;98198.00;;;9.63;100.00
13767;BME280;47980;48.794;9.176;2023-12-29T06:50:33;98201.72;;;9.71;100.00
13767;BME280;47980;48.794;9.176;2023-12-29T06:53:04;98197.06;;;9.68;100.00
13767;BME280;47980;48.794;9.176;2023-12-29T06:55:36;98207.50;;;9.73;100.00
13767;BME280;47980;48.794;9.176;2023-12-29T06:58:07;98213.56;;;9.74;100.00
13767;BME280;47980;48.794;9.176;2023-12-29T07:00:40;98209.94;;;9.87;100.00
13767;BME280;47980;48.794;9.176;2023-12-29T07:03:13;98217.88;;;9.87;100.00
13767;BME280;47980;48.794;9.176;2023-12-29T07:05:44;98218.50;;;9.93;100.00
13767;BME280;47980;48.794;9.176;2023-12-29T07:08:16;98211.00;;;9.95;100.00
13767;BME280;47980;48.794;9.176;2023-12-29T07:10:47;98213.44;;;10.08;100.00
13767;BME280;47980;48.794;9.176;2023-12-29T07:13:20;98211.41;;;10.05;100.00
13767;BME280;47980;48.794;9.176;2023-12-29T07:15:53;98218.00;;;9.99;100.00
13767;BME280;47980;48.794;9.176;2023-12-29T07:18:25;98212.22;;;10.06;100.00
13767;BME280;47980;48.794;9.176;2023-12-29T07:20:56;98203.44;;;10.14;100.00
13767;BME280;47980;48.794;9.176;2023-12-29T07:23:28;98202.50;;;10.19;100.00
13767;BME280;47980;48.794;9.176;2023-12-29T07:26:00;98202.00;;;10.17;100.00
13767;BME280;47980;48.794;9.176;2023-12-29T07:28:33;98198.31;;;10.09;100.00
13767;BME280;47980;48.794;9.176;2023-12-29T07:31:06;98211.28;;;10.02;100.00
13767;BME280;47980;48.794;9.176;2023-12-29T07:33:38;98199.59;;;10.03;100.00
13767;BME280;47980;48.794;9.176;2023-12-29T07:36:09;98194.94;;;10.00;100.00
13767;BME280;47980;48.794;9.176;2023-12-29T07:38:41;98198.22;;;9.97;100.00
13767;BME280;47980;48.794;9.176;2023-12-29T07:41:13;98200.50;;;10.07;100.00
13767;BME280;47980;48.794;9.176;2023-12-29T07:43:45;98189.91;;;10.07;100.00
13767;BME280;47980;48.794;9.176;2023-12-29T07:46:24;98196.41;;;10.18;100.00
13767;BME280;47980;48.794;9.176;2023-12-29T07:48:56;98197.81;;;10.16;100.00
13767;BME280;47980;48.794;9.176;2023-12-29T07:51:28;98202.44;;;10.36;100.00
13767;BME280;47980;48.794;9.176;2023-12-29T07:53:59;98194.22;;;10.29;100.00
13767;BME280;47980;48.794;9.176;2023-12-29T07:56:31;98201.47;;;10.41;100.00
13767;BME280;47980;48.794;9.176;2023-12-29T07:59:02;98205.81;;;10.45;100.00
13767;BME280;47980;48.794;9.176;2023-12-29T08:01:35;98219.53;;;10.47;100.00
13767;BME280;47980;48.794;9.176;2023-12-29T08:04:08;98213.97;;;10.40;100.00
13767;BME280;47980;48.794;9.176;2023-12-29T08:06:39;98216.13;;;10.38;100.00
13767;BME280;47980;48.794;9.176;2023-12-29T08:09:11;98218.63;;;10.43;100.00
13767;BME280;47980;48.794;9.176;2023-12-29T08:11:42;98214.44;;;10.63;100.00
13767;BME280;47980;48.794;9.176;2023-12-29T08:14:14;98220.66;;;10.46;100.00
13767;BME280;47980;48.794;9.176;2023-12-29T08:16:47;98215.91;;;10.52;100.00
13767;BME280;47980;48.794;9.176;2023-12-29T08:19:18;98220.78;;;10.50;100.00
13767;BME280;47980;48.794;9.176;2023-12-29T08:21:50;98219.75;;;10.63;100.00
13767;BME280;47980;48.794;9.176;2023-12-29T08:24:22;98216.53;;;10.57;100.00
13767;BME280;47980;48.794;9.176;2023-12-29T08:26:53;98227.56;;;10.59;100.00
13767;BME280;47980;48.794;9.176;2023-12-29T08:29:25;98228.31;;;10.39;100.00
13767;BME280;47980;48.794;9.176;2023-12-29T08:31:58;98228.69;;;10.58;100.00
13767;BME280;47980;48.794;9.176;2023-12-29T08:34:32;98229.41;;;10.68;100.00
13767;BME280;47980;48.794;9.176;2023-12-29T08:37:04;98230.06;;;10.65;100.00
13767;BME280;47980;48.794;9.176;2023-12-29T08:39:36;98229.94;;;10.82;100.00
13767;BME280;47980;48.794;9.176;2023-12-29T08:42:07;98237.06;;;10.90;100.00
13767;BME280;47980;48.794;9.176;2023-12-29T08:44:39;98234.84;;;10.92;100.00
13767;BME280;47980;48.794;9.176;2023-12-29T08:47:11;98236.09;;;10.95;100.00
13767;BME280;47980;48.794;9.176;2023-12-29T08:49:43;98234.69;;;10.97;100.00
13767;BME280;47980;48.794;9.176;2023-12-29T08:52:15;98226.75;;;10.89;100.00
13767;BME280;47980;48.794;9.176;2023-12-29T08:54:47;98235.00;;;10.96;100.00
13767;BME280;47980;48.794;9.176;2023-12-29T08:57:18;98238.41;;;10.96;100.00
13767;BME280;47980;48.794;9.176;2023-12-29T08:59:50;98224.06;;;10.97;100.00
13767;BME280;47980;48.794;9.176;2023-12-29T09:02:23;98236.16;;;10.86;100.00
13767;BME280;47980;48.794;9.176;2023-12-29T09:04:55;98229.63;;;10.83;100.00
13767;BME280;47980;48.794;9.176;2023-12-29T09:07:26;98233.25;;;11.00;100.00
13767;BME280;47980;48.794;9.176;2023-12-29T09:09:58;98223.59;;;10.95;100.00
13767;BME280;47980;48.794;9.176;2023-12-29T09:12:32;98227.28;;;11.03;100.00
13767;BME280;47980;48.794;9.176;2023-12-29T09:15:04;98231.81;;;11.02;99.84
13767;BME280;47980;48.794;9.176;2023-12-29T09:17:37;98213.72;;;11.04;100.00
13767;BME280;47980;48.794;9.176;2023-12-29T09:20:09;98234.75;;;11.09;100.00
13767;BME280;47980;48.794;9.176;2023-12-29T09:22:41;98229.44;;;11.09;98.90
13767;BME280;47980;48.794;9.176;2023-12-29T09:25:13;98230.84;;;11.07;99.43
13767;BME280;47980;48.794;9.176;2023-12-29T09:27:46;98233.63;;;11.31;98.01
13767;BME280;47980;48.794;9.176;2023-12-29T09:30:19;98236.78;;;11.46;96.10
13767;BME280;47980;48.794;9.176;2023-12-29T09:32:52;98238.78;;;11.49;95.79
13767;BME280;47980;48.794;9.176;2023-12-29T09:35:24;98246.09;;;11.73;95.55
13767;BME280;47980;48.794;9.176;2023-12-29T09:37:57;98245.78;;;11.87;94.44
13767;BME280;47980;48.794;9.176;2023-12-29T09:40:30;98245.78;;;11.87;93.46
13767;BME280;47980;48.794;9.176;2023-12-29T09:43:03;98246.50;;;11.75;95.52
13767;BME280;47980;48.794;9.176;2023-12-29T09:45:37;98255.50;;;11.82;94.35
13767;BME280;47980;48.794;9.176;2023-12-29T09:48:11;98248.84;;;11.76;94.68
13767;BME280;47980;48.794;9.176;2023-12-29T09:50:45;98252.72;;;11.79;94.94
13767;BME280;47980;48.794;9.176;2023-12-29T09:53:17;98258.25;;;11.74;93.90
13767;BME280;47980;48.794;9.176;2023-12-29T09:55:51;98258.13;;;11.91;94.20
13767;BME280;47980;48.794;9.176;2023-12-29T09:58:23;98255.72;;;11.77;93.20
13767;BME280;47980;48.794;9.176;2023-12-29T10:00:55;98264.84;;;11.89;94.30
13767;BME280;47980;48.794;9.176;2023-12-29T10:03:29;98264.81;;;12.10;90.86
13767;BME280;47980;48.794;9.176;2023-12-29T10:06:00;98259.59;;;12.25;91.97
13767;BME280;47980;48.794;9.176;2023-12-29T10:08:36;98271.47;;;12.28;91.00
13767;BME280;47980;48.794;9.176;2023-12-29T10:11:09;98249.63;;;12.47;89.73
13767;BME280;47980;48.794;9.176;2023-12-29T10:13:42;98254.53;;;12.57;88.70
13767;BME280;47980;48.794;9.176;2023-12-29T10:16:21;98244.53;;;12.54;89.55
13767;BME280;47980;48.794;9.176;2023-12-29T10:19:07;98239.53;;;12.65;88.78
13767;BME280;47980;48.794;9.176;2023-12-29T10:21:46;98238.66;;;12.61;88.38
13767;BME280;47980;48.794;9.176;2023-12-29T10:24:21;98237.56;;;12.49;89.01
13767;BME280;47980;48.794;9.176;2023-12-29T10:26:53;98237.00;;;12.44;88.87
13767;BME280;47980;48.794;9.176;2023-12-29T10:29:27;98231.31;;;12.09;90.21
13767;BME280;47980;48.794;9.176;2023-12-29T10:31:58;98239.97;;;12.18;92.11
13767;BME280;47980;48.794;9.176;2023-12-29T10:34:31;98219.28;;;12.36;90.75
13767;BME280;47980;48.794;9.176;2023-12-29T10:37:03;98219.47;;;12.31;89.29
13767;BME280;47980;48.794;9.176;2023-12-29T10:39:54;98217.94;;;12.54;88.09
13767;BME280;47980;48.794;9.176;2023-12-29T10:42:26;98222.59;;;12.57;87.17
13767;BME280;47980;48.794;9.176;2023-12-29T10:45:05;98222.22;;;12.83;84.58
13767;BME280;47980;48.794;9.176;2023-12-29T10:47:43;98214.75;;;12.89;83.60
13767;BME280;47980;48.794;9.176;2023-12-29T10:50:16;98208.28;;;13.02;81.17
13767;BME280;47980;48.794;9.176;2023-12-29T10:52:47;98208.22;;;12.86;80.73
13767;BME280;47980;48.794;9.176;2023-12-29T10:55:23;98206.34;;;12.87;81.75
13767;BME280;47980;48.794;9.176;2023-12-29T10:57:59;98189.38;;;12.79;81.29
13767;BME280;47980;48.794;9.176;2023-12-29T11:00:32;98191.25;;;12.91;79.81
13767;BME280;47980;48.794;9.176;2023-12-29T11:03:04;98188.63;;;12.66;80.70
13767;BME280;47980;48.794;9.176;2023-12-29T11:05:38;98182.94;;;12.80;81.15
13767;BME280;47980;48.794;9.176;2023-12-29T11:08:15;98178.28;;;12.77;79.79
13767;BME280;47980;48.794;9.176;2023-12-29T11:10:48;98185.72;;;12.84;79.78
13767;BME280;47980;48.794;9.176;2023-12-29T11:13:21;98181.81;;;12.81;78.97
13767;BME280;47980;48.794;9.176;2023-12-29T11:15:53;98184.63;;;12.72;78.35
13767;BME280;47980;48.794;9.176;2023-12-29T11:18:27;98183.81;;;12.84;78.71
13767;BME280;47980;48.794;9.176;2023-12-29T11:21:01;98181.59;;;12.86;77.89
13767;BME280;47980;48.794;9.176;2023-12-29T11:23:33;98173.06;;;12.81;77.58
13767;BME280;47980;48.794;9.176;2023-12-29T11:26:04;98173.94;;;12.97;77.62
13767;BME280;47980;48.794;9.176;2023-12-29T11:28:37;98176.59;;;12.85;76.97
13767;BME280;47980;48.794;9.176;2023-12-29T11:31:09;98179.16;;;12.81;76.30
13767;BME280;47980;48.794;9.176;2023-12-29T11:33:43;98168.03;;;13.04;74.75
13767;BME280;47980;48.794;9.176;2023-12-29T11:36:20;98167.44;;;12.82;75.21
13767;BME280;47980;48.794;9.176;2023-12-29T11:38:58;98161.03;;;12.99;75.00
13767;BME280;47980;48.794;9.176;2023-12-29T11:41:38;98161.00;;;13.11;72.68
13767;BME280;47980;48.794;9.176;2023-12-29T11:44:12;98156.88;;;13.14;74.52
13767;BME280;47980;48.794;9.176;2023-12-29T11:46:44;98174.84;;;12.76;74.43
13767;BME280;47980;48.794;9.176;2023-12-29T11:49:16;98172.19;;;12.76;75.01
13767;BME280;47980;48.794;9.176;2023-12-29T11:57:51;98142.16;;;13.04;73.00
13767;BME280;47980;48.794;9.176;2023-12-29T12:00:43;98154.06;;;12.94;71.97
13767;BME280;47980;48.794;9.176;2023-12-29T12:03:24;98151.50;;;12.98;70.63
13767;BME280;47980;48.794;9.176;2023-12-29T12:05:56;98148.94;;;13.01;71.21
13767;BME280;47980;48.794;9.176;2023-12-29T12:08:33;98141.53;;;12.95;71.93
13767;BME280;47980;48.794;9.176;2023-12-29T12:17:34;98130.16;;;12.82;71.24
13767;BME280;47980;48.794;9.176;2023-12-29T12:20:07;98127.41;;;12.79;70.57
13767;BME280;47980;48.794;9.176;2023-12-29T12:22:40;98125.69;;;12.86;70.13
13767;BME280;47980;48.794;9.176;2023-12-29T12:25:12;98118.69;;;12.94;69.43
13767;BME280;47980;48.794;9.176;2023-12-29T12:27:44;98123.16;;;13.06;70.23
13767;BME280;47980;48.794;9.176;2023-12-29T12:30:18;98114.75;;;13.04;68.25
13767;BME280;47980;48.794;9.176;2023-12-29T12:32:58;98109.59;;;13.11;69.11
13767;BME280;47980;48.794;9.176;2023-12-29T12:35:30;98113.03;;;13.23;67.54
13767;BME280;47980;48.794;9.176;2023-12-29T12:38:08;98120.16;;;13.35;68.20
13767;BME280;47980;48.794;9.176;2023-12-29T12:40:40;98109.44;;;13.47;66.87
13767;BME280;47980;48.794;9.176;2023-12-29T12:43:13;98112.97;;;13.52;66.84
13767;BME280;47980;48.794;9.176;2023-12-29T12:45:48;98116.00;;;13.66;65.99
13767;BME280;47980;48.794;9.176;2023-12-29T12:48:23;98105.66;;;13.96;64.24
13767;BME280;47980;48.794;9.176;2023-12-29T12:50:55;98113.19;;;13.94;63.80
13767;BME280;47980;48.794;9.176;2023-12-29T12:53:29;98104.28;;;13.70;64.66
13767;BME280;47980;48.794;9.176;2023-12-29T12:56:01;98105.31;;;13.82;64.35
13767;BME280;47980;48.794;9.176;2023-12-29T12:58:33;98112.38;;;13.74;64.79
13767;BME280;47980;48.794;9.176;2023-12-29T13:01:05;98116.00;;;13.66;65.38
13767;BME280;47980;48.794;9.176;2023-12-29T13:03:39;98123.91;;;13.62;65.13
13767;BME280;47980;48.794;9.176;2023-12-29T13:06:11;98115.28;;;13.53;65.40
13767;BME280;47980;48.794;9.176;2023-12-29T13:08:43;98117.09;;;13.49;67.06
13767;BME280;47980;48.794;9.176;2023-12-29T13:11:18;98120.53;;;13.49;65.88
13767;BME280;47980;48.794;9.176;2023-12-29T13:13:52;98122.88;;;13.51;67.19
13767;BME280;47980;48.794;9.176;2023-12-29T13:16:30;98120.44;;;13.46;66.16
13767;BME280;47980;48.794;9.176;2023-12-29T13:19:17;98125.50;;;13.35;66.80
13767;BME280;47980;48.794;9.176;2023-12-29T13:21:51;98112.22;;;13.23;65.26
13767;BME280;47980;48.794;9.176;2023-12-29T13:24:24;98116.91;;;13.26;65.55
13767;BME280;47980;48.794;9.176;2023-12-29T13:27:02;98128.88;;;13.20;65.69
13767;BME280;47980;48.794;9.176;2023-12-29T13:29:36;98121.88;;;13.28;65.44
13767;BME280;47980;48.794;9.176;2023-12-29T13:32:15;98123.41;;;13.29;64.95
13767;BME280;47980;48.794;9.176;2023-12-29T13:34:53;98122.25;;;13.14;66.09
13767;BME280;47980;48.794;9.176;2023-12-29T13:37:31;98127.06;;;13.08;65.30
13767;BME280;47980;48.794;9.176;2023-12-29T13:40:10;98112.34;;;13.27;64.42